sensor_id;sensor_type;location;lat;lon;timestamp;P1;durP1;ratioP1;P2;durP2;ratioP2
15086;SDS011;7642;48.478;8.952;2022-08-21T00:01:09;2.78;;;1.42;;
15086;SDS011;7642;48.478;8.952;2022-08-21T00:03:37;1.08;;;0.98;;
15086;SDS011;7642;48.478;8.952;2022-08-21T00:06:04;1.80;;;1.50;;
15086;SDS011;7642;48.478;8.952;2022-08-21T00:08:29;0.95;;;0.95;;
15086;SDS011;7642;48.478;8.952;2022-08-21T00:10:55;1.40;;;1.30;;
15086;SDS011;7642;48.478;8.952;2022-08-21T00:13:21;1.67;;;1.35;;
15086;SDS011;7642;48.478;8.952;2022-08-21T00:15:47;2.55;;;1.20;;
15086;SDS011;7642;48.478;8.952;2022-08-21T00:18:13;1.85;;;1.50;;
15086;SDS011;7642;48.478;8.952;2022-08-21T00:20:40;1.58;;;1.48;;
15086;SDS011;7642;48.478;8.952;2022-08-21T00:23:06;1.20;;;1.10;;
15086;SDS011;7642;48.478;8.952;2022-08-21T00:25:32;1.67;;;1.30;;
15086;SDS011;7642;48.478;8.952;2022-08-21T00:27:58;1.50;;;1.40;;
15086;SDS011;7642;48.478;8.952;2022-08-21T00:30:25;1.65;;;1.40;;
15086;SDS011;7642;48.478;8.952;2022-08-21T00:32:51;2.28;;;1.48;;
15086;SDS011;7642;48.478;8.952;2022-08-21T00:35:19;2.30;;;1.35;;
15086;SDS011;7642;48.478;8.952;2022-08-21T00:37:47;2.92;;;1.77;;
15086;SDS011;7642;48.478;8.952;2022-08-21T00:40:15;2.60;;;1.42;;
15086;SDS011;7642;48.478;8.952;2022-08-21T00:42:43;3.97;;;1.52;;
15086;SDS011;7642;48.478;8.952;2022-08-21T00:45:09;1.48;;;1.25;;
15086;SDS011;7642;48.478;8.952;2022-08-21T00:47:35;3.40;;;1.73;;
15086;SDS011;7642;48.478;8.952;2022-08-21T00:50:02;2.33;;;1.60;;
15086;SDS011;7642;48.478;8.952;2022-08-21T00:52:29;1.63;;;1.15;;
15086;SDS011;7642;48.478;8.952;2022-08-21T00:54:57;1.60;;;1.30;;
15086;SDS011;7642;48.478;8.952;2022-08-21T00:57:29;3.53;;;1.48;;
15086;SDS011;7642;48.478;8.952;2022-08-21T00:59:59;2.75;;;1.30;;
15086;SDS011;7642;48.478;8.952;2022-08-21T01:02:26;2.58;;;1.63;;
15086;SDS011;7642;48.478;8.952;2022-08-21T01:04:51;1.92;;;1.35;;
15086;SDS011;7642;48.478;8.952;2022-08-21T01:07:17;2.03;;;1.52;;
15086;SDS011;7642;48.478;8.952;2022-08-21T01:09:44;1.42;;;1.30;;
15086;SDS011;7642;48.478;8.952;2022-08-21T01:12:11;1.23;;;1.13;;
15086;SDS011;7642;48.478;8.952;2022-08-21T01:14:37;1.30;;;1.20;;
15086;SDS011;7642;48.478;8.952;2022-08-21T01:17:05;4.35;;;1.30;;
15086;SDS011;7642;48.478;8.952;2022-08-21T01:19:31;2.03;;;1.60;;
15086;SDS011;7642;48.478;8.952;2022-08-21T01:21:56;1.30;;;1.20;;
15086;SDS011;7642;48.478;8.952;2022-08-21T01:24:22;3.38;;;1.88;;
15086;SDS011;7642;48.478;8.952;2022-08-21T01:26:48;1.30;;;1.20;;
15086;SDS011;7642;48.478;8.952;2022-08-21T01:32:18;1.60;;;1.40;;
15086;SDS011;7642;48.478;8.952;2022-08-21T01:34:46;2.53;;;1.90;;
15086;SDS011;7642;48.478;8.952;2022-08-21T01:37:13;2.25;;;1.33;;
15086;SDS011;7642;48.478;8.952;2022-08-21T01:39:40;3.25;;;1.30;;
15086;SDS011;7642;48.478;8.952;2022-08-21T01:42:07;1.48;;;1.30;;
15086;SDS011;7642;48.478;8.952;2022-08-21T01:44:33;1.63;;;1.38;;
15086;SDS011;7642;48.478;8.952;2022-08-21T01:47:00;1.55;;;1.25;;
15086;SDS011;7642;48.478;8.952;2022-08-21T01:49:30;2.08;;;1.58;;
15086;SDS011;7642;48.478;8.952;2022-08-21T01:51:56;1.55;;;1.45;;
15086;SDS011;7642;48.478;8.952;2022-08-21T01:54:21;2.85;;;1.70;;
15086;SDS011;7642;48.478;8.952;2022-08-21T01:56:49;3.17;;;1.60;;
15086;SDS011;7642;48.478;8.952;2022-08-21T01:59:16;1.67;;;1.58;;
15086;SDS011;7642;48.478;8.952;2022-08-21T02:01:42;2.08;;;1.50;;
15086;SDS011;7642;48.478;8.952;2022-08-21T02:04:09;4.65;;;1.60;;
15086;SDS011;7642;48.478;8.952;2022-08-21T02:06:35;1.17;;;1.10;;
15086;SDS011;7642;48.478;8.952;2022-08-21T02:09:05;1.42;;;1.30;;
15086;SDS011;7642;48.478;8.952;2022-08-21T02:11:32;1.77;;;1.65;;
15086;SDS011;7642;48.478;8.952;2022-08-21T02:13:58;1.67;;;1.58;;
15086;SDS011;7642;48.478;8.952;2022-08-21T02:16:24;2.03;;;1.63;;
15086;SDS011;7642;48.478;8.952;2022-08-21T02:18:49;2.25;;;1.77;;
15086;SDS011;7642;48.478;8.952;2022-08-21T02:21:15;1.35;;;1.25;;
15086;SDS011;7642;48.478;8.952;2022-08-21T02:23:40;3.10;;;1.50;;
15086;SDS011;7642;48.478;8.952;2022-08-21T02:26:06;1.45;;;1.33;;
15086;SDS011;7642;48.478;8.952;2022-08-21T02:28:33;3.72;;;1.70;;
15086;SDS011;7642;48.478;8.952;2022-08-21T02:31:00;3.65;;;1.33;;
15086;SDS011;7642;48.478;8.952;2022-08-21T02:33:27;2.28;;;1.60;;
15086;SDS011;7642;48.478;8.952;2022-08-21T02:35:54;1.40;;;1.30;;
15086;SDS011;7642;48.478;8.952;2022-08-21T02:38:23;2.00;;;1.80;;
15086;SDS011;7642;48.478;8.952;2022-08-21T02:40:51;1.95;;;1.75;;
15086;SDS011;7642;48.478;8.952;2022-08-21T02:43:18;1.75;;;1.45;;
15086;SDS011;7642;48.478;8.952;2022-08-21T02:45:45;3.83;;;1.50;;
15086;SDS011;7642;48.478;8.952;2022-08-21T02:48:14;1.73;;;1.40;;
15086;SDS011;7642;48.478;8.952;2022-08-21T02:50:45;1.75;;;1.52;;
15086;SDS011;7642;48.478;8.952;2022-08-21T02:53:12;1.33;;;1.15;;
15086;SDS011;7642;48.478;8.952;2022-08-21T02:55:41;2.47;;;1.45;;
15086;SDS011;7642;48.478;8.952;2022-08-21T02:58:08;4.10;;;1.45;;
15086;SDS011;7642;48.478;8.952;2022-08-21T03:00:34;1.73;;;1.63;;
15086;SDS011;7642;48.478;8.952;2022-08-21T03:03:01;3.17;;;1.38;;
15086;SDS011;7642;48.478;8.952;2022-08-21T03:05:30;2.38;;;1.85;;
15086;SDS011;7642;48.478;8.952;2022-08-21T03:07:57;1.30;;;1.20;;
15086;SDS011;7642;48.478;8.952;2022-08-21T03:10:24;2.58;;;1.60;;
15086;SDS011;7642;48.478;8.952;2022-08-21T03:12:50;2.55;;;1.40;;
15086;SDS011;7642;48.478;8.952;2022-08-21T03:15:17;1.92;;;1.70;;
15086;SDS011;7642;48.478;8.952;2022-08-21T03:17:45;2.97;;;1.40;;
15086;SDS011;7642;48.478;8.952;2022-08-21T03:20:11;1.92;;;1.70;;
15086;SDS011;7642;48.478;8.952;2022-08-21T03:22:39;1.80;;;1.65;;
15086;SDS011;7642;48.478;8.952;2022-08-21T03:25:06;1.60;;;1.50;;
15086;SDS011;7642;48.478;8.952;2022-08-21T03:27:33;5.38;;;1.27;;
15086;SDS011;7642;48.478;8.952;2022-08-21T03:29:59;1.40;;;1.20;;
15086;SDS011;7642;48.478;8.952;2022-08-21T03:32:25;3.75;;;1.40;;
15086;SDS011;7642;48.478;8.952;2022-08-21T03:34:51;1.63;;;1.52;;
15086;SDS011;7642;48.478;8.952;2022-08-21T03:37:17;1.35;;;1.25;;
15086;SDS011;7642;48.478;8.952;2022-08-21T03:39:42;3.13;;;2.10;;
15086;SDS011;7642;48.478;8.952;2022-08-21T03:42:10;2.85;;;1.20;;
15086;SDS011;7642;48.478;8.952;2022-08-21T03:44:36;1.40;;;1.30;;
15086;SDS011;7642;48.478;8.952;2022-08-21T03:47:02;2.20;;;1.65;;
15086;SDS011;7642;48.478;8.952;2022-08-21T03:49:28;1.30;;;1.20;;
15086;SDS011;7642;48.478;8.952;2022-08-21T03:51:54;3.97;;;1.67;;
15086;SDS011;7642;48.478;8.952;2022-08-21T03:54:19;1.40;;;1.23;;
15086;SDS011;7642;48.478;8.952;2022-08-21T03:56:46;2.70;;;1.30;;
15086;SDS011;7642;48.478;8.952;2022-08-21T03:59:12;1.33;;;1.23;;
15086;SDS011;7642;48.478;8.952;2022-08-21T04:01:38;4.15;;;1.85;;
15086;SDS011;7642;48.478;8.952;2022-08-21T04:04:04;4.57;;;1.85;;
15086;SDS011;7642;48.478;8.952;2022-08-21T04:06:31;1.60;;;1.50;;
15086;SDS011;7642;48.478;8.952;2022-08-21T04:08:57;1.83;;;1.63;;
15086;SDS011;7642;48.478;8.952;2022-08-21T04:11:23;1.80;;;1.60;;
15086;SDS011;7642;48.478;8.952;2022-08-21T04:13:48;2.55;;;1.35;;
15086;SDS011;7642;48.478;8.952;2022-08-21T04:16:14;1.50;;;1.25;;
15086;SDS011;7642;48.478;8.952;2022-08-21T04:18:40;2.35;;;1.27;;
15086;SDS011;7642;48.478;8.952;2022-08-21T04:21:07;2.55;;;1.25;;
15086;SDS011;7642;48.478;8.952;2022-08-21T04:23:35;1.52;;;1.38;;
15086;SDS011;7642;48.478;8.952;2022-08-21T04:26:01;2.30;;;1.63;;
15086;SDS011;7642;48.478;8.952;2022-08-21T04:28:27;2.53;;;1.33;;
15086;SDS011;7642;48.478;8.952;2022-08-21T04:30:53;2.05;;;1.45;;
15086;SDS011;7642;48.478;8.952;2022-08-21T04:33:20;2.22;;;1.70;;
15086;SDS011;7642;48.478;8.952;2022-08-21T04:35:46;1.50;;;1.40;;
15086;SDS011;7642;48.478;8.952;2022-08-21T04:38:12;4.10;;;1.50;;
15086;SDS011;7642;48.478;8.952;2022-08-21T04:40:38;1.85;;;1.58;;
15086;SDS011;7642;48.478;8.952;2022-08-21T04:43:05;2.10;;;1.90;;
15086;SDS011;7642;48.478;8.952;2022-08-21T04:45:34;1.85;;;1.55;;
15086;SDS011;7642;48.478;8.952;2022-08-21T04:48:03;1.45;;;1.35;;
15086;SDS011;7642;48.478;8.952;2022-08-21T04:50:34;2.25;;;1.70;;
15086;SDS011;7642;48.478;8.952;2022-08-21T04:53:07;1.73;;;1.60;;
15086;SDS011;7642;48.478;8.952;2022-08-21T04:55:36;4.15;;;2.13;;
15086;SDS011;7642;48.478;8.952;2022-08-21T04:58:02;1.70;;;1.60;;
15086;SDS011;7642;48.478;8.952;2022-08-21T05:00:30;2.15;;;1.70;;
15086;SDS011;7642;48.478;8.952;2022-08-21T05:02:56;1.90;;;1.70;;
15086;SDS011;7642;48.478;8.952;2022-08-21T05:05:24;1.85;;;1.52;;
15086;SDS011;7642;48.478;8.952;2022-08-21T05:07:50;2.10;;;1.77;;
15086;SDS011;7642;48.478;8.952;2022-08-21T05:10:18;1.65;;;1.55;;
15086;SDS011;7642;48.478;8.952;2022-08-21T05:12:44;4.05;;;2.17;;
15086;SDS011;7642;48.478;8.952;2022-08-21T05:15:10;2.95;;;1.90;;
15086;SDS011;7642;48.478;8.952;2022-08-21T05:17:37;2.20;;;2.00;;
15086;SDS011;7642;48.478;8.952;2022-08-21T05:20:04;2.60;;;2.08;;
15086;SDS011;7642;48.478;8.952;2022-08-21T05:22:30;2.05;;;1.88;;
15086;SDS011;7642;48.478;8.952;2022-08-21T05:24:56;2.55;;;2.10;;
15086;SDS011;7642;48.478;8.952;2022-08-21T05:27:22;2.25;;;1.63;;
15086;SDS011;7642;48.478;8.952;2022-08-21T05:29:48;3.75;;;2.05;;
15086;SDS011;7642;48.478;8.952;2022-08-21T05:32:14;2.58;;;2.20;;
15086;SDS011;7642;48.478;8.952;2022-08-21T05:34:39;2.30;;;2.03;;
15086;SDS011;7642;48.478;8.952;2022-08-21T05:37:05;3.35;;;2.10;;
15086;SDS011;7642;48.478;8.952;2022-08-21T05:39:31;5.88;;;2.78;;
15086;SDS011;7642;48.478;8.952;2022-08-21T05:41:57;4.05;;;2.58;;
15086;SDS011;7642;48.478;8.952;2022-08-21T05:44:22;7.93;;;2.50;;
15086;SDS011;7642;48.478;8.952;2022-08-21T05:46:48;4.45;;;2.95;;
15086;SDS011;7642;48.478;8.952;2022-08-21T05:49:13;4.18;;;2.47;;
15086;SDS011;7642;48.478;8.952;2022-08-21T05:51:39;2.85;;;2.40;;
15086;SDS011;7642;48.478;8.952;2022-08-21T05:54:06;3.80;;;2.53;;
15086;SDS011;7642;48.478;8.952;2022-08-21T05:56:32;3.28;;;2.45;;
15086;SDS011;7642;48.478;8.952;2022-08-21T05:58:57;3.70;;;2.55;;
15086;SDS011;7642;48.478;8.952;2022-08-21T06:01:23;3.90;;;2.88;;
15086;SDS011;7642;48.478;8.952;2022-08-21T06:03:49;3.55;;;2.40;;
15086;SDS011;7642;48.478;8.952;2022-08-21T06:06:15;3.30;;;2.50;;
15086;SDS011;7642;48.478;8.952;2022-08-21T06:08:41;3.15;;;2.70;;
15086;SDS011;7642;48.478;8.952;2022-08-21T06:11:07;4.22;;;2.28;;
15086;SDS011;7642;48.478;8.952;2022-08-21T06:13:33;3.75;;;2.05;;
15086;SDS011;7642;48.478;8.952;2022-08-21T06:16:10;2.42;;;2.10;;
15086;SDS011;7642;48.478;8.952;2022-08-21T06:18:38;2.33;;;1.98;;
15086;SDS011;7642;48.478;8.952;2022-08-21T06:21:05;2.45;;;1.95;;
15086;SDS011;7642;48.478;8.952;2022-08-21T06:23:31;2.78;;;2.13;;
15086;SDS011;7642;48.478;8.952;2022-08-21T06:25:58;2.38;;;2.17;;
15086;SDS011;7642;48.478;8.952;2022-08-21T06:28:23;1.92;;;1.73;;
15086;SDS011;7642;48.478;8.952;2022-08-21T06:30:49;2.35;;;1.77;;
15086;SDS011;7642;48.478;8.952;2022-08-21T06:33:15;2.15;;;1.73;;
15086;SDS011;7642;48.478;8.952;2022-08-21T06:35:40;3.85;;;2.22;;
15086;SDS011;7642;48.478;8.952;2022-08-21T06:38:06;3.15;;;2.05;;
15086;SDS011;7642;48.478;8.952;2022-08-21T06:40:32;1.60;;;1.50;;
15086;SDS011;7642;48.478;8.952;2022-08-21T06:42:58;2.40;;;1.50;;
15086;SDS011;7642;48.478;8.952;2022-08-21T06:45:30;2.90;;;2.00;;
15086;SDS011;7642;48.478;8.952;2022-08-21T06:47:55;2.33;;;1.80;;
15086;SDS011;7642;48.478;8.952;2022-08-21T06:50:21;2.17;;;1.80;;
15086;SDS011;7642;48.478;8.952;2022-08-21T06:52:46;2.15;;;1.80;;
15086;SDS011;7642;48.478;8.952;2022-08-21T06:55:12;3.75;;;2.10;;
15086;SDS011;7642;48.478;8.952;2022-08-21T06:57:38;1.50;;;1.40;;
15086;SDS011;7642;48.478;8.952;2022-08-21T07:00:04;1.70;;;1.60;;
15086;SDS011;7642;48.478;8.952;2022-08-21T07:02:31;1.92;;;1.65;;
15086;SDS011;7642;48.478;8.952;2022-08-21T07:04:58;3.00;;;1.90;;
15086;SDS011;7642;48.478;8.952;2022-08-21T07:07:24;2.00;;;1.50;;
15086;SDS011;7642;48.478;8.952;2022-08-21T07:09:49;2.58;;;1.75;;
15086;SDS011;7642;48.478;8.952;2022-08-21T07:12:15;5.43;;;1.75;;
15086;SDS011;7642;48.478;8.952;2022-08-21T07:14:40;2.00;;;1.65;;
15086;SDS011;7642;48.478;8.952;2022-08-21T07:17:07;4.55;;;1.60;;
15086;SDS011;7642;48.478;8.952;2022-08-21T07:19:32;4.13;;;2.00;;
15086;SDS011;7642;48.478;8.952;2022-08-21T07:21:59;3.85;;;1.88;;
15086;SDS011;7642;48.478;8.952;2022-08-21T07:24:26;3.30;;;1.73;;
15086;SDS011;7642;48.478;8.952;2022-08-21T07:26:53;2.33;;;1.65;;
15086;SDS011;7642;48.478;8.952;2022-08-21T07:29:18;1.63;;;1.45;;
15086;SDS011;7642;48.478;8.952;2022-08-21T07:31:44;1.80;;;1.40;;
15086;SDS011;7642;48.478;8.952;2022-08-21T07:34:10;2.10;;;1.40;;
15086;SDS011;7642;48.478;8.952;2022-08-21T07:36:38;2.10;;;1.83;;
15086;SDS011;7642;48.478;8.952;2022-08-21T07:39:04;2.08;;;1.52;;
15086;SDS011;7642;48.478;8.952;2022-08-21T07:41:29;2.58;;;1.58;;
15086;SDS011;7642;48.478;8.952;2022-08-21T07:43:57;2.65;;;1.70;;
15086;SDS011;7642;48.478;8.952;2022-08-21T07:46:24;2.78;;;1.40;;
15086;SDS011;7642;48.478;8.952;2022-08-21T07:48:50;2.08;;;1.88;;
15086;SDS011;7642;48.478;8.952;2022-08-21T07:51:17;1.95;;;1.75;;
15086;SDS011;7642;48.478;8.952;2022-08-21T07:53:50;1.40;;;1.30;;
15086;SDS011;7642;48.478;8.952;2022-08-21T07:56:17;2.08;;;1.83;;
15086;SDS011;7642;48.478;8.952;2022-08-21T07:58:43;4.55;;;1.60;;
15086;SDS011;7642;48.478;8.952;2022-08-21T08:01:09;1.80;;;1.70;;
15086;SDS011;7642;48.478;8.952;2022-08-21T08:03:34;2.75;;;1.60;;
15086;SDS011;7642;48.478;8.952;2022-08-21T08:06:00;1.73;;;1.45;;
15086;SDS011;7642;48.478;8.952;2022-08-21T08:08:29;1.80;;;1.52;;
15086;SDS011;7642;48.478;8.952;2022-08-21T08:10:55;1.50;;;1.40;;
15086;SDS011;7642;48.478;8.952;2022-08-21T08:13:22;2.33;;;1.70;;
15086;SDS011;7642;48.478;8.952;2022-08-21T08:15:48;1.52;;;1.40;;
15086;SDS011;7642;48.478;8.952;2022-08-21T08:18:14;2.88;;;1.40;;
15086;SDS011;7642;48.478;8.952;2022-08-21T08:20:40;4.38;;;1.40;;
15086;SDS011;7642;48.478;8.952;2022-08-21T08:23:06;2.22;;;1.45;;
15086;SDS011;7642;48.478;8.952;2022-08-21T08:25:32;1.70;;;1.10;;
15086;SDS011;7642;48.478;8.952;2022-08-21T08:27:57;3.25;;;1.48;;
15086;SDS011;7642;48.478;8.952;2022-08-21T08:30:23;2.67;;;1.40;;
15086;SDS011;7642;48.478;8.952;2022-08-21T08:32:49;2.75;;;1.80;;
15086;SDS011;7642;48.478;8.952;2022-08-21T08:35:15;4.45;;;1.52;;
15086;SDS011;7642;48.478;8.952;2022-08-21T08:37:41;3.60;;;1.67;;
15086;SDS011;7642;48.478;8.952;2022-08-21T08:40:12;2.40;;;1.55;;
15086;SDS011;7642;48.478;8.952;2022-08-21T08:42:44;2.83;;;1.55;;
15086;SDS011;7642;48.478;8.952;2022-08-21T08:45:13;3.83;;;2.10;;
15086;SDS011;7642;48.478;8.952;2022-08-21T08:47:51;4.72;;;1.88;;
15086;SDS011;7642;48.478;8.952;2022-08-21T08:53:17;2.78;;;1.30;;
15086;SDS011;7642;48.478;8.952;2022-08-21T08:55:53;2.30;;;1.70;;
15086;SDS011;7642;48.478;8.952;2022-08-21T08:58:28;6.18;;;1.95;;
15086;SDS011;7642;48.478;8.952;2022-08-21T09:00:56;2.70;;;1.73;;
15086;SDS011;7642;48.478;8.952;2022-08-21T09:03:23;3.83;;;2.13;;
15086;SDS011;7642;48.478;8.952;2022-08-21T09:11:37;3.17;;;1.42;;
15086;SDS011;7642;48.478;8.952;2022-08-21T09:14:12;4.90;;;1.90;;
15086;SDS011;7642;48.478;8.952;2022-08-21T09:17:02;2.22;;;1.25;;
15086;SDS011;7642;48.478;8.952;2022-08-21T09:25:10;2.92;;;1.35;;
15086;SDS011;7642;48.478;8.952;2022-08-21T09:27:45;5.45;;;1.80;;
15086;SDS011;7642;48.478;8.952;2022-08-21T09:30:10;4.18;;;2.00;;
15086;SDS011;7642;48.478;8.952;2022-08-21T09:32:37;3.17;;;1.90;;
15086;SDS011;7642;48.478;8.952;2022-08-21T09:37:45;2.70;;;1.90;;
15086;SDS011;7642;48.478;8.952;2022-08-21T09:43:02;4.30;;;2.30;;
15086;SDS011;7642;48.478;8.952;2022-08-21T09:45:40;4.05;;;1.80;;
15086;SDS011;7642;48.478;8.952;2022-08-21T09:48:08;4.75;;;1.55;;
15086;SDS011;7642;48.478;8.952;2022-08-21T09:50:44;2.50;;;1.40;;
15086;SDS011;7642;48.478;8.952;2022-08-21T09:53:22;3.00;;;1.92;;
15086;SDS011;7642;48.478;8.952;2022-08-21T09:55:56;5.50;;;1.70;;
15086;SDS011;7642;48.478;8.952;2022-08-21T09:58:45;4.97;;;1.90;;
15086;SDS011;7642;48.478;8.952;2022-08-21T10:01:13;2.75;;;1.48;;
15086;SDS011;7642;48.478;8.952;2022-08-21T10:03:41;4.10;;;1.95;;
15086;SDS011;7642;48.478;8.952;2022-08-21T10:06:08;3.22;;;1.75;;
15086;SDS011;7642;48.478;8.952;2022-08-21T10:08:37;4.40;;;1.42;;
15086;SDS011;7642;48.478;8.952;2022-08-21T10:11:05;4.05;;;1.67;;
15086;SDS011;7642;48.478;8.952;2022-08-21T10:25:49;2.15;;;1.50;;
15086;SDS011;7642;48.478;8.952;2022-08-21T10:28:00;1.83;;;1.40;;
15086;SDS011;7642;48.478;8.952;2022-08-21T10:30:37;4.65;;;2.08;;
15086;SDS011;7642;48.478;8.952;2022-08-21T10:33:27;3.28;;;1.73;;
15086;SDS011;7642;48.478;8.952;2022-08-21T10:36:02;2.42;;;1.30;;
15086;SDS011;7642;48.478;8.952;2022-08-21T10:44:27;3.72;;;1.30;;
15086;SDS011;7642;48.478;8.952;2022-08-21T10:47:16;2.45;;;1.42;;
15086;SDS011;7642;48.478;8.952;2022-08-21T10:54:54;2.42;;;1.00;;
15086;SDS011;7642;48.478;8.952;2022-08-21T11:00:18;3.83;;;1.40;;
15086;SDS011;7642;48.478;8.952;2022-08-21T11:05:52;2.35;;;1.08;;
15086;SDS011;7642;48.478;8.952;2022-08-21T11:08:26;2.97;;;1.38;;
15086;SDS011;7642;48.478;8.952;2022-08-21T11:11:06;2.88;;;1.50;;
15086;SDS011;7642;48.478;8.952;2022-08-21T11:13:47;2.83;;;1.25;;
15086;SDS011;7642;48.478;8.952;2022-08-21T11:16:33;1.58;;;1.15;;
15086;SDS011;7642;48.478;8.952;2022-08-21T11:21:48;1.92;;;1.35;;
15086;SDS011;7642;48.478;8.952;2022-08-21T11:27:36;1.83;;;1.50;;
15086;SDS011;7642;48.478;8.952;2022-08-21T11:30:11;3.83;;;1.80;;
15086;SDS011;7642;48.478;8.952;2022-08-21T11:40:51;0.90;;;0.85;;
15086;SDS011;7642;48.478;8.952;2022-08-21T11:43:48;2.33;;;1.20;;
15086;SDS011;7642;48.478;8.952;2022-08-21T11:46:32;2.35;;;0.90;;
15086;SDS011;7642;48.478;8.952;2022-08-21T11:51:38;2.58;;;1.48;;
15086;SDS011;7642;48.478;8.952;2022-08-21T11:54:16;1.17;;;0.80;;
15086;SDS011;7642;48.478;8.952;2022-08-21T11:56:54;2.00;;;1.30;;
15086;SDS011;7642;48.478;8.952;2022-08-21T11:59:31;1.30;;;1.10;;
15086;SDS011;7642;48.478;8.952;2022-08-21T12:02:19;1.85;;;1.23;;
15086;SDS011;7642;48.478;8.952;2022-08-21T12:04:52;1.85;;;1.17;;
15086;SDS011;7642;48.478;8.952;2022-08-21T12:07:41;1.85;;;1.13;;
15086;SDS011;7642;48.478;8.952;2022-08-21T12:10:10;1.40;;;1.20;;
15086;SDS011;7642;48.478;8.952;2022-08-21T12:12:39;1.77;;;1.30;;
15086;SDS011;7642;48.478;8.952;2022-08-21T12:17:39;1.50;;;1.20;;
15086;SDS011;7642;48.478;8.952;2022-08-21T12:20:17;3.47;;;1.60;;
15086;SDS011;7642;48.478;8.952;2022-08-21T12:23:01;3.10;;;1.35;;
15086;SDS011;7642;48.478;8.952;2022-08-21T12:28:09;1.67;;;1.02;;
15086;SDS011;7642;48.478;8.952;2022-08-21T12:30:42;3.70;;;1.30;;
15086;SDS011;7642;48.478;8.952;2022-08-21T12:36:01;3.00;;;1.10;;
15086;SDS011;7642;48.478;8.952;2022-08-21T12:38:45;1.90;;;1.20;;
15086;SDS011;7642;48.478;8.952;2022-08-21T12:41:17;3.58;;;1.30;;
15086;SDS011;7642;48.478;8.952;2022-08-21T12:43:51;1.73;;;1.20;;
15086;SDS011;7642;48.478;8.952;2022-08-21T12:46:29;1.52;;;1.38;;
15086;SDS011;7642;48.478;8.952;2022-08-21T12:49:03;5.07;;;1.42;;
15086;SDS011;7642;48.478;8.952;2022-08-21T12:51:52;2.13;;;1.52;;
15086;SDS011;7642;48.478;8.952;2022-08-21T12:54:29;1.95;;;1.25;;
15086;SDS011;7642;48.478;8.952;2022-08-21T12:57:00;5.32;;;1.25;;
15086;SDS011;7642;48.478;8.952;2022-08-21T12:59:28;1.42;;;1.23;;
15086;SDS011;7642;48.478;8.952;2022-08-21T13:01:55;1.48;;;1.38;;
15086;SDS011;7642;48.478;8.952;2022-08-21T13:04:25;2.83;;;1.27;;
15086;SDS011;7642;48.478;8.952;2022-08-21T13:07:05;2.05;;;1.45;;
15086;SDS011;7642;48.478;8.952;2022-08-21T13:09:40;1.52;;;1.10;;
15086;SDS011;7642;48.478;8.952;2022-08-21T13:12:20;1.67;;;1.27;;
15086;SDS011;7642;48.478;8.952;2022-08-21T13:14:48;3.53;;;1.30;;
15086;SDS011;7642;48.478;8.952;2022-08-21T13:17:19;2.75;;;1.30;;
15086;SDS011;7642;48.478;8.952;2022-08-21T13:20:03;1.67;;;1.08;;
15086;SDS011;7642;48.478;8.952;2022-08-21T13:22:39;3.17;;;1.35;;
15086;SDS011;7642;48.478;8.952;2022-08-21T13:25:09;2.17;;;1.10;;
15086;SDS011;7642;48.478;8.952;2022-08-21T13:27:40;2.08;;;1.30;;
15086;SDS011;7642;48.478;8.952;2022-08-21T13:32:42;2.13;;;1.10;;
15086;SDS011;7642;48.478;8.952;2022-08-21T13:35:11;2.22;;;1.38;;
15086;SDS011;7642;48.478;8.952;2022-08-21T13:37:47;3.15;;;1.17;;
15086;SDS011;7642;48.478;8.952;2022-08-21T13:40:15;3.55;;;1.40;;
15086;SDS011;7642;48.478;8.952;2022-08-21T13:42:44;4.38;;;1.50;;
15086;SDS011;7642;48.478;8.952;2022-08-21T13:45:17;2.28;;;1.25;;
15086;SDS011;7642;48.478;8.952;2022-08-21T13:47:48;1.67;;;1.20;;
15086;SDS011;7642;48.478;8.952;2022-08-21T13:50:15;2.08;;;1.13;;
15086;SDS011;7642;48.478;8.952;2022-08-21T13:52:54;1.90;;;1.13;;
15086;SDS011;7642;48.478;8.952;2022-08-21T13:55:39;1.70;;;1.17;;
15086;SDS011;7642;48.478;8.952;2022-08-21T13:58:06;1.95;;;1.02;;
15086;SDS011;7642;48.478;8.952;2022-08-21T14:00:34;2.35;;;1.30;;
15086;SDS011;7642;48.478;8.952;2022-08-21T14:03:09;4.80;;;1.10;;
15086;SDS011;7642;48.478;8.952;2022-08-21T14:05:43;2.13;;;1.23;;
15086;SDS011;7642;48.478;8.952;2022-08-21T14:08:12;2.88;;;1.23;;
15086;SDS011;7642;48.478;8.952;2022-08-21T14:10:42;2.72;;;1.13;;
15086;SDS011;7642;48.478;8.952;2022-08-21T14:13:20;2.70;;;1.15;;
15086;SDS011;7642;48.478;8.952;2022-08-21T14:15:57;0.98;;;0.73;;
15086;SDS011;7642;48.478;8.952;2022-08-21T14:18:24;4.18;;;1.10;;
15086;SDS011;7642;48.478;8.952;2022-08-21T14:21:08;1.02;;;0.88;;
15086;SDS011;7642;48.478;8.952;2022-08-21T14:23:35;1.80;;;1.30;;
15086;SDS011;7642;48.478;8.952;2022-08-21T14:26:02;3.28;;;1.20;;
15086;SDS011;7642;48.478;8.952;2022-08-21T14:28:30;1.92;;;1.27;;
15086;SDS011;7642;48.478;8.952;2022-08-21T14:33:59;1.63;;;1.05;;
15086;SDS011;7642;48.478;8.952;2022-08-21T14:36:25;2.35;;;1.30;;
15086;SDS011;7642;48.478;8.952;2022-08-21T14:38:51;2.35;;;1.13;;
15086;SDS011;7642;48.478;8.952;2022-08-21T14:41:20;2.33;;;1.17;;
15086;SDS011;7642;48.478;8.952;2022-08-21T14:43:48;2.22;;;1.15;;
15086;SDS011;7642;48.478;8.952;2022-08-21T14:46:20;2.55;;;1.00;;
15086;SDS011;7642;48.478;8.952;2022-08-21T14:48:49;1.50;;;1.00;;
15086;SDS011;7642;48.478;8.952;2022-08-21T14:51:15;1.30;;;1.05;;
15086;SDS011;7642;48.478;8.952;2022-08-21T14:53:41;1.88;;;1.05;;
15086;SDS011;7642;48.478;8.952;2022-08-21T14:56:07;1.55;;;1.00;;
15086;SDS011;7642;48.478;8.952;2022-08-21T14:58:42;2.92;;;1.00;;
15086;SDS011;7642;48.478;8.952;2022-08-21T15:01:11;3.88;;;1.20;;
15086;SDS011;7642;48.478;8.952;2022-08-21T15:03:38;1.60;;;1.17;;
15086;SDS011;7642;48.478;8.952;2022-08-21T15:06:04;4.50;;;1.30;;
15086;SDS011;7642;48.478;8.952;2022-08-21T15:08:31;1.17;;;1.08;;
15086;SDS011;7642;48.478;8.952;2022-08-21T15:10:57;1.65;;;1.05;;
15086;SDS011;7642;48.478;8.952;2022-08-21T15:13:24;1.98;;;1.05;;
15086;SDS011;7642;48.478;8.952;2022-08-21T15:15:51;1.80;;;1.05;;
15086;SDS011;7642;48.478;8.952;2022-08-21T15:18:18;2.53;;;1.17;;
15086;SDS011;7642;48.478;8.952;2022-08-21T15:20:44;2.35;;;1.30;;
15086;SDS011;7642;48.478;8.952;2022-08-21T15:23:10;1.77;;;1.00;;
15086;SDS011;7642;48.478;8.952;2022-08-21T15:25:36;3.10;;;1.38;;
15086;SDS011;7642;48.478;8.952;2022-08-21T15:28:04;1.98;;;1.40;;
15086;SDS011;7642;48.478;8.952;2022-08-21T15:30:30;1.92;;;1.27;;
15086;SDS011;7642;48.478;8.952;2022-08-21T15:32:56;1.80;;;1.10;;
15086;SDS011;7642;48.478;8.952;2022-08-21T15:35:22;1.30;;;1.02;;
15086;SDS011;7642;48.478;8.952;2022-08-21T15:37:48;2.45;;;1.38;;
15086;SDS011;7642;48.478;8.952;2022-08-21T15:40:14;1.88;;;1.02;;
15086;SDS011;7642;48.478;8.952;2022-08-21T15:42:40;1.70;;;1.10;;
15086;SDS011;7642;48.478;8.952;2022-08-21T15:45:07;1.25;;;1.05;;
15086;SDS011;7642;48.478;8.952;2022-08-21T15:47:36;2.92;;;1.45;;
15086;SDS011;7642;48.478;8.952;2022-08-21T15:50:03;1.17;;;1.08;;
15086;SDS011;7642;48.478;8.952;2022-08-21T15:52:31;1.52;;;1.05;;
15086;SDS011;7642;48.478;8.952;2022-08-21T15:54:57;1.85;;;1.30;;
15086;SDS011;7642;48.478;8.952;2022-08-21T15:57:23;2.15;;;1.63;;
15086;SDS011;7642;48.478;8.952;2022-08-21T15:59:51;1.23;;;0.98;;
15086;SDS011;7642;48.478;8.952;2022-08-21T16:02:23;1.50;;;1.10;;
15086;SDS011;7642;48.478;8.952;2022-08-21T16:04:51;1.52;;;0.93;;
15086;SDS011;7642;48.478;8.952;2022-08-21T16:07:17;2.20;;;1.40;;
15086;SDS011;7642;48.478;8.952;2022-08-21T16:09:43;1.90;;;1.00;;
15086;SDS011;7642;48.478;8.952;2022-08-21T16:12:09;1.20;;;1.02;;
15086;SDS011;7642;48.478;8.952;2022-08-21T16:14:41;2.15;;;1.38;;
15086;SDS011;7642;48.478;8.952;2022-08-21T16:17:07;1.52;;;1.10;;
15086;SDS011;7642;48.478;8.952;2022-08-21T16:19:33;1.95;;;0.90;;
15086;SDS011;7642;48.478;8.952;2022-08-21T16:22:00;1.80;;;1.10;;
15086;SDS011;7642;48.478;8.952;2022-08-21T16:24:26;2.08;;;1.17;;
15086;SDS011;7642;48.478;8.952;2022-08-21T16:26:51;2.33;;;1.38;;
15086;SDS011;7642;48.478;8.952;2022-08-21T16:29:18;1.67;;;1.05;;
15086;SDS011;7642;48.478;8.952;2022-08-21T16:31:44;1.33;;;0.88;;